sensor_id;sensor_type;location;lat;lon;timestamp;P1;P2;P0
42510;PMS7003;28141;51.120;17.114;2023-05-10T00:01:01;10;3;3
42510;PMS7003;28141;51.120;17.114;2023-05-10T00:04:15;11;4;3
42510;PMS7003;28141;51.120;17.114;2023-05-10T00:07:29;10;4;3
42510;PMS7003;28141;51.120;17.114;2023-05-10T00:11:09;11;4;2
42510;PMS7003;28141;51.120;17.114;2023-05-10T00:14:23;11;3;2
42510;PMS7003;28141;51.120;17.114;2023-05-10T00:17:37;10;3;3
42510;PMS7003;28141;51.120;17.114;2023-05-10T00:20:51;10;3;2
42510;PMS7003;28141;51.120;17.114;2023-05-10T00:24:31;10;4;2
42510;PMS7003;28141;51.120;17.114;2023-05-10T00:27:45;12;5;4
42510;PMS7003;28141;51.120;17.114;2023-05-10T00:30:59;11;4;3
42510;PMS7003;28141;51.120;17.114;2023-05-10T00:34:13;11;5;3
42510;PMS7003;28141;51.120;17.114;2023-05-10T00:37:55;10;3;2
42510;PMS7003;28141;51.120;17.114;2023-05-10T00:41:09;12;4;3
42510;PMS7003;28141;51.120;17.114;2023-05-10T00:44:23;11;5;2
42510;PMS7003;28141;51.120;17.114;2023-05-10T00:47:37;12;5;4
42510;PMS7003;28141;51.120;17.114;2023-05-10T00:51:18;11;4;3
42510;PMS7003;28141;51.120;17.114;2023-05-10T00:54:33;11;4;2
42510;PMS7003;28141;51.120;17.114;2023-05-10T00:57:47;10;3;2
42510;PMS7003;28141;51.120;17.114;2023-05-10T01:01:01;11;4;3
42510;PMS7003;28141;51.120;17.114;2023-05-10T01:04:42;11;4;3
42510;PMS7003;28141;51.120;17.114;2023-05-10T01:07:56;10;3;3
42510;PMS7003;28141;51.120;17.114;2023-05-10T01:11:10;12;6;4
42510;PMS7003;28141;51.120;17.114;2023-05-10T01:14:24;10;4;3
42510;PMS7003;28141;51.120;17.114;2023-05-10T01:18:06;14;4;3
42510;PMS7003;28141;51.120;17.114;2023-05-10T01:32:15;10;3;2
42510;PMS7003;28141;51.120;17.114;2023-05-10T01:35:42;11;4;3
42510;PMS7003;28141;51.120;17.114;2023-05-10T01:42:53;10;3;3
42510;PMS7003;28141;51.120;17.114;2023-05-10T01:46:17;10;4;3
42510;PMS7003;28141;51.120;17.114;2023-05-10T01:50:06;10;4;3
42510;PMS7003;28141;51.120;17.114;2023-05-10T01:53:28;12;4;3
42510;PMS7003;28141;51.120;17.114;2023-05-10T01:56:43;10;4;2
42510;PMS7003;28141;51.120;17.114;2023-05-10T02:00:00;11;4;3
42510;PMS7003;28141;51.120;17.114;2023-05-10T02:03:43;11;5;3
42510;PMS7003;28141;51.120;17.114;2023-05-10T02:06:58;13;5;3
42510;PMS7003;28141;51.120;17.114;2023-05-10T02:10:12;11;5;3
42510;PMS7003;28141;51.120;17.114;2023-05-10T02:13:27;12;4;3
42510;PMS7003;28141;51.120;17.114;2023-05-10T02:17:12;15;6;4
42510;PMS7003;28141;51.120;17.114;2023-05-10T02:20:27;12;4;3
42510;PMS7003;28141;51.120;17.114;2023-05-10T02:23:44;13;5;4
42510;PMS7003;28141;51.120;17.114;2023-05-10T02:26:59;13;6;3
42510;PMS7003;28141;51.120;17.114;2023-05-10T02:30:41;12;5;3
42510;PMS7003;28141;51.120;17.114;2023-05-10T02:33:56;12;5;4
42510;PMS7003;28141;51.120;17.114;2023-05-10T02:37:13;11;4;3
42510;PMS7003;28141;51.120;17.114;2023-05-10T02:40:29;12;5;3
42510;PMS7003;28141;51.120;17.114;2023-05-10T02:44:10;12;4;3
42510;PMS7003;28141;51.120;17.114;2023-05-10T02:47:27;12;5;3
42510;PMS7003;28141;51.120;17.114;2023-05-10T02:50:43;13;4;3
42510;PMS7003;28141;51.120;17.114;2023-05-10T02:54:03;12;4;3
42510;PMS7003;28141;51.120;17.114;2023-05-10T02:57:52;13;5;3
42510;PMS7003;28141;51.120;17.114;2023-05-10T03:01:11;12;5;3
42510;PMS7003;28141;51.120;17.114;2023-05-10T03:04:25;14;5;3
42510;PMS7003;28141;51.120;17.114;2023-05-10T03:07:39;15;5;4
42510;PMS7003;28141;51.120;17.114;2023-05-10T03:14:49;12;5;3
42510;PMS7003;28141;51.120;17.114;2023-05-10T03:18:15;11;4;3
42510;PMS7003;28141;51.120;17.114;2023-05-10T03:22:03;11;4;3
42510;PMS7003;28141;51.120;17.114;2023-05-10T03:25:21;10;4;3
42510;PMS7003;28141;51.120;17.114;2023-05-10T03:28:36;12;5;4
42510;PMS7003;28141;51.120;17.114;2023-05-10T03:31:51;12;5;3
42510;PMS7003;28141;51.120;17.114;2023-05-10T03:35:31;11;4;2
42510;PMS7003;28141;51.120;17.114;2023-05-10T03:38:46;11;5;3
42510;PMS7003;28141;51.120;17.114;2023-05-10T03:42:00;13;5;4
42510;PMS7003;28141;51.120;17.114;2023-05-10T03:45:14;11;5;4
42510;PMS7003;28141;51.120;17.114;2023-05-10T03:48:54;11;5;4
42510;PMS7003;28141;51.120;17.114;2023-05-10T03:52:08;12;5;3
42510;PMS7003;28141;51.120;17.114;2023-05-10T03:55:22;11;5;3
42510;PMS7003;28141;51.120;17.114;2023-05-10T03:58:37;13;5;3
42510;PMS7003;28141;51.120;17.114;2023-05-10T04:02:17;14;5;3
42510;PMS7003;28141;51.120;17.114;2023-05-10T04:05:30;12;5;3
42510;PMS7003;28141;51.120;17.114;2023-05-10T04:08:44;12;4;3
42510;PMS7003;28141;51.120;17.114;2023-05-10T04:11:58;13;5;3
42510;PMS7003;28141;51.120;17.114;2023-05-10T04:15:41;13;5;4
42510;PMS7003;28141;51.120;17.114;2023-05-10T04:18:56;12;5;4
42510;PMS7003;28141;51.120;17.114;2023-05-10T04:22:10;12;5;3
42510;PMS7003;28141;51.120;17.114;2023-05-10T04:25:24;13;6;3
42510;PMS7003;28141;51.120;17.114;2023-05-10T04:29:04;11;4;3
42510;PMS7003;28141;51.120;17.114;2023-05-10T04:32:18;11;5;4
42510;PMS7003;28141;51.120;17.114;2023-05-10T04:35:33;11;5;4
42510;PMS7003;28141;51.120;17.114;2023-05-10T04:38:48;12;4;3
42510;PMS7003;28141;51.120;17.114;2023-05-10T04:42:28;12;5;4
42510;PMS7003;28141;51.120;17.114;2023-05-10T04:45:42;13;5;3
42510;PMS7003;28141;51.120;17.114;2023-05-10T04:48:56;13;5;4
42510;PMS7003;28141;51.120;17.114;2023-05-10T04:52:10;12;6;3
42510;PMS7003;28141;51.120;17.114;2023-05-10T04:55:50;12;5;3
42510;PMS7003;28141;51.120;17.114;2023-05-10T04:59:04;13;6;4
42510;PMS7003;28141;51.120;17.114;2023-05-10T05:02:18;11;5;3
42510;PMS7003;28141;51.120;17.114;2023-05-10T05:05:33;12;5;3
42510;PMS7003;28141;51.120;17.114;2023-05-10T05:09:13;11;5;3
42510;PMS7003;28141;51.120;17.114;2023-05-10T05:12:26;12;5;3
42510;PMS7003;28141;51.120;17.114;2023-05-10T05:15:40;11;4;3
42510;PMS7003;28141;51.120;17.114;2023-05-10T05:18:54;11;4;3
42510;PMS7003;28141;51.120;17.114;2023-05-10T05:22:35;14;8;4
42510;PMS7003;28141;51.120;17.114;2023-05-10T05:25:53;13;6;4
42510;PMS7003;28141;51.120;17.114;2023-05-10T05:29:07;13;6;4
42510;PMS7003;28141;51.120;17.114;2023-05-10T05:32:21;14;6;4
42510;PMS7003;28141;51.120;17.114;2023-05-10T05:36:02;13;5;4
42510;PMS7003;28141;51.120;17.114;2023-05-10T05:39:18;13;6;4
42510;PMS7003;28141;51.120;17.114;2023-05-10T05:42:32;13;6;4
42510;PMS7003;28141;51.120;17.114;2023-05-10T05:45:46;12;5;4
42510;PMS7003;28141;51.120;17.114;2023-05-10T05:49:26;13;5;4
42510;PMS7003;28141;51.120;17.114;2023-05-10T05:52:40;11;5;3
42510;PMS7003;28141;51.120;17.114;2023-05-10T05:55:54;13;5;4
42510;PMS7003;28141;51.120;17.114;2023-05-10T05:59:10;12;5;4
42510;PMS7003;28141;51.120;17.114;2023-05-10T06:02:25;11;5;3
42510;PMS7003;28141;51.120;17.114;2023-05-10T06:06:05;11;4;3
42510;PMS7003;28141;51.120;17.114;2023-05-10T06:09:19;12;5;4
42510;PMS7003;28141;51.120;17.114;2023-05-10T06:12:34;14;6;3
42510;PMS7003;28141;51.120;17.114;2023-05-10T06:15:48;12;6;4
42510;PMS7003;28141;51.120;17.114;2023-05-10T06:19:29;12;5;3
42510;PMS7003;28141;51.120;17.114;2023-05-10T06:22:43;11;4;3
42510;PMS7003;28141;51.120;17.114;2023-05-10T06:25:56;14;6;4
42510;PMS7003;28141;51.120;17.114;2023-05-10T06:29:10;12;5;4
42510;PMS7003;28141;51.120;17.114;2023-05-10T06:32:50;15;6;3
42510;PMS7003;28141;51.120;17.114;2023-05-10T06:36:05;12;5;3
42510;PMS7003;28141;51.120;17.114;2023-05-10T06:39:19;15;6;4
42510;PMS7003;28141;51.120;17.114;2023-05-10T06:42:33;12;5;3
42510;PMS7003;28141;51.120;17.114;2023-05-10T06:46:13;12;5;3
42510;PMS7003;28141;51.120;17.114;2023-05-10T06:49:26;12;5;3
42510;PMS7003;28141;51.120;17.114;2023-05-10T06:52:40;13;5;3
42510;PMS7003;28141;51.120;17.114;2023-05-10T06:55:55;12;5;4
42510;PMS7003;28141;51.120;17.114;2023-05-10T06:59:35;12;4;3
42510;PMS7003;28141;51.120;17.114;2023-05-10T07:02:49;13;5;3
42510;PMS7003;28141;51.120;17.114;2023-05-10T07:06:04;13;6;3
42510;PMS7003;28141;51.120;17.114;2023-05-10T07:09:20;13;5;3
42510;PMS7003;28141;51.120;17.114;2023-05-10T07:13:00;12;5;3
42510;PMS7003;28141;51.120;17.114;2023-05-10T07:16:14;10;4;3
42510;PMS7003;28141;51.120;17.114;2023-05-10T07:19:28;11;4;3
42510;PMS7003;28141;51.120;17.114;2023-05-10T07:22:45;12;4;3
42510;PMS7003;28141;51.120;17.114;2023-05-10T07:26:25;13;5;3
42510;PMS7003;28141;51.120;17.114;2023-05-10T07:29:39;11;4;3
42510;PMS7003;28141;51.120;17.114;2023-05-10T07:32:53;13;4;3
42510;PMS7003;28141;51.120;17.114;2023-05-10T07:36:08;10;4;3
42510;PMS7003;28141;51.120;17.114;2023-05-10T07:39:48;11;4;3
42510;PMS7003;28141;51.120;17.114;2023-05-10T07:43:02;10;4;3
42510;PMS7003;28141;51.120;17.114;2023-05-10T07:46:16;11;5;3
42510;PMS7003;28141;51.120;17.114;2023-05-10T07:49:32;10;3;3
42510;PMS7003;28141;51.120;17.114;2023-05-10T07:53:12;12;4;3
42510;PMS7003;28141;51.120;17.114;2023-05-10T07:56:27;11;5;3
42510;PMS7003;28141;51.120;17.114;2023-05-10T07:59:45;10;4;3
42510;PMS7003;28141;51.120;17.114;2023-05-10T08:03:00;12;4;2
42510;PMS7003;28141;51.120;17.114;2023-05-10T08:06:40;11;4;3
42510;PMS7003;28141;51.120;17.114;2023-05-10T08:09:54;10;3;2
42510;PMS7003;28141;51.120;17.114;2023-05-10T08:13:08;11;4;3
42510;PMS7003;28141;51.120;17.114;2023-05-10T08:16:22;11;3;3
42510;PMS7003;28141;51.120;17.114;2023-05-10T08:20:03;12;4;2
42510;PMS7003;28141;51.120;17.114;2023-05-10T08:23:20;12;4;3
42510;PMS7003;28141;51.120;17.114;2023-05-10T08:26:34;11;4;2
42510;PMS7003;28141;51.120;17.114;2023-05-10T08:29:48;10;4;2
42510;PMS7003;28141;51.120;17.114;2023-05-10T08:33:02;12;4;2
42510;PMS7003;28141;51.120;17.114;2023-05-10T08:36:42;12;4;3
42510;PMS7003;28141;51.120;17.114;2023-05-10T08:39:56;10;3;3
42510;PMS7003;28141;51.120;17.114;2023-05-10T08:43:11;11;4;2
42510;PMS7003;28141;51.120;17.114;2023-05-10T08:46:28;10;3;2
42510;PMS7003;28141;51.120;17.114;2023-05-10T08:50:10;11;3;3
42510;PMS7003;28141;51.120;17.114;2023-05-10T08:53:25;11;4;3
42510;PMS7003;28141;51.120;17.114;2023-05-10T08:56:42;10;4;3
42510;PMS7003;28141;51.120;17.114;2023-05-10T08:59:56;12;5;3
42510;PMS7003;28141;51.120;17.114;2023-05-10T09:03:38;11;4;3
42510;PMS7003;28141;51.120;17.114;2023-05-10T09:06:52;11;4;3
42510;PMS7003;28141;51.120;17.114;2023-05-10T09:10:06;11;3;2
42510;PMS7003;28141;51.120;17.114;2023-05-10T09:13:22;10;3;2
42510;PMS7003;28141;51.120;17.114;2023-05-10T09:17:04;10;3;2
42510;PMS7003;28141;51.120;17.114;2023-05-10T09:20:18;10;4;2
42510;PMS7003;28141;51.120;17.114;2023-05-10T09:23:32;10;3;3
42510;PMS7003;28141;51.120;17.114;2023-05-10T09:26:46;11;4;3
42510;PMS7003;28141;51.120;17.114;2023-05-10T09:30:02;10;3;2
42510;PMS7003;28141;51.120;17.114;2023-05-10T09:33:18;10;3;2
42510;PMS7003;28141;51.120;17.114;2023-05-10T09:36:32;9;3;3
42510;PMS7003;28141;51.120;17.114;2023-05-10T09:40:19;10;3;2
42510;PMS7003;28141;51.120;17.114;2023-05-10T09:43:37;10;3;1
42510;PMS7003;28141;51.120;17.114;2023-05-10T09:46:51;10;3;2
42510;PMS7003;28141;51.120;17.114;2023-05-10T09:50:08;12;5;2
42510;PMS7003;28141;51.120;17.114;2023-05-10T09:53:49;10;2;2
42510;PMS7003;28141;51.120;17.114;2023-05-10T09:57:31;9;2;1
42510;PMS7003;28141;51.120;17.114;2023-05-10T10:00:37;9;3;2
42510;PMS7003;28141;51.120;17.114;2023-05-10T10:04:19;10;3;2
42510;PMS7003;28141;51.120;17.114;2023-05-10T10:07:34;11;4;2
42510;PMS7003;28141;51.120;17.114;2023-05-10T10:10:49;10;3;2
42510;PMS7003;28141;51.120;17.114;2023-05-10T10:14:04;10;3;1
42510;PMS7003;28141;51.120;17.114;2023-05-10T10:17:44;10;3;2
42510;PMS7003;28141;51.120;17.114;2023-05-10T10:23:50;9;3;2
42510;PMS7003;28141;51.120;17.114;2023-05-10T10:37:45;9;3;2
42510;PMS7003;28141;51.120;17.114;2023-05-10T10:41:10;10;3;2
42510;PMS7003;28141;51.120;17.114;2023-05-10T10:44:55;9;3;2
42510;PMS7003;28141;51.120;17.114;2023-05-10T10:51:39;11;2;2
42510;PMS7003;28141;51.120;17.114;2023-05-10T10:55:20;12;2;1
42510;PMS7003;28141;51.120;17.114;2023-05-10T10:58:48;9;2;1
42510;PMS7003;28141;51.120;17.114;2023-05-10T11:02:04;10;3;2
42510;PMS7003;28141;51.120;17.114;2023-05-10T11:05:49;9;2;2
42510;PMS7003;28141;51.120;17.114;2023-05-10T11:09:09;10;3;2
42510;PMS7003;28141;51.120;17.114;2023-05-10T11:12:24;10;3;2
42510;PMS7003;28141;51.120;17.114;2023-05-10T11:15:38;9;2;1
42510;PMS7003;28141;51.120;17.114;2023-05-10T11:19:19;9;3;2
42510;PMS7003;28141;51.120;17.114;2023-05-10T11:22:48;10;3;2
42510;PMS7003;28141;51.120;17.114;2023-05-10T11:25:59;9;2;1
42510;PMS7003;28141;51.120;17.114;2023-05-10T11:29:45;9;3;1
42510;PMS7003;28141;51.120;17.114;2023-05-10T11:32:58;9;3;2
42510;PMS7003;28141;51.120;17.114;2023-05-10T11:39:34;9;3;2
42510;PMS7003;28141;51.120;17.114;2023-05-10T11:43:14;10;3;2
42510;PMS7003;28141;51.120;17.114;2023-05-10T11:46:28;10;3;2
42510;PMS7003;28141;51.120;17.114;2023-05-10T11:49:45;9;3;2
42510;PMS7003;28141;51.120;17.114;2023-05-10T11:52:59;10;3;2
42510;PMS7003;28141;51.120;17.114;2023-05-10T11:56:40;9;3;2
42510;PMS7003;28141;51.120;17.114;2023-05-10T11:59:56;10;1;1
42510;PMS7003;28141;51.120;17.114;2023-05-10T12:03:11;10;3;2
42510;PMS7003;28141;51.120;17.114;2023-05-10T12:06:29;10;4;2
42510;PMS7003;28141;51.120;17.114;2023-05-10T12:10:11;9;3;2
42510;PMS7003;28141;51.120;17.114;2023-05-10T12:13:30;8;2;2
42510;PMS7003;28141;51.120;17.114;2023-05-10T12:16:45;9;2;1
42510;PMS7003;28141;51.120;17.114;2023-05-10T12:23:56;10;3;2
42510;PMS7003;28141;51.120;17.114;2023-05-10T12:27:13;10;3;2
42510;PMS7003;28141;51.120;17.114;2023-05-10T12:30:28;8;2;1
42510;PMS7003;28141;51.120;17.114;2023-05-10T12:33:44;10;3;1
42510;PMS7003;28141;51.120;17.114;2023-05-10T12:37:27;9;2;1
42510;PMS7003;28141;51.120;17.114;2023-05-10T12:40:41;10;3;2
42510;PMS7003;28141;51.120;17.114;2023-05-10T12:43:55;9;2;2
42510;PMS7003;28141;51.120;17.114;2023-05-10T12:47:09;9;3;2
42510;PMS7003;28141;51.120;17.114;2023-05-10T12:50:50;9;2;1
42510;PMS7003;28141;51.120;17.114;2023-05-10T12:54:04;10;3;3
42510;PMS7003;28141;51.120;17.114;2023-05-10T12:57:18;11;4;2
42510;PMS7003;28141;51.120;17.114;2023-05-10T13:00:33;10;3;2
42510;PMS7003;28141;51.120;17.114;2023-05-10T13:04:14;10;3;2
42510;PMS7003;28141;51.120;17.114;2023-05-10T13:07:27;10;3;2
42510;PMS7003;28141;51.120;17.114;2023-05-10T13:10:41;9;3;2
42510;PMS7003;28141;51.120;17.114;2023-05-10T13:13:56;11;4;2
42510;PMS7003;28141;51.120;17.114;2023-05-10T13:17:36;9;2;2
42510;PMS7003;28141;51.120;17.114;2023-05-10T13:20:53;9;3;1
42510;PMS7003;28141;51.120;17.114;2023-05-10T13:24:08;11;4;2
42510;PMS7003;28141;51.120;17.114;2023-05-10T13:27:23;10;3;2
42510;PMS7003;28141;51.120;17.114;2023-05-10T13:31:04;11;4;2
42510;PMS7003;28141;51.120;17.114;2023-05-10T13:34:18;11;4;3
42510;PMS7003;28141;51.120;17.114;2023-05-10T13:37:33;12;4;2
42510;PMS7003;28141;51.120;17.114;2023-05-10T13:40:50;11;4;2
42510;PMS7003;28141;51.120;17.114;2023-05-10T13:44:32;13;6;3
42510;PMS7003;28141;51.120;17.114;2023-05-10T13:47:46;13;5;4
42510;PMS7003;28141;51.120;17.114;2023-05-10T13:51:00;16;9;4
42510;PMS7003;28141;51.120;17.114;2023-05-10T13:54:14;14;7;4
42510;PMS7003;28141;51.120;17.114;2023-05-10T13:57:58;13;6;3
42510;PMS7003;28141;51.120;17.114;2023-05-10T14:01:13;13;5;3
42510;PMS7003;28141;51.120;17.114;2023-05-10T14:04:27;12;5;3
42510;PMS7003;28141;51.120;17.114;2023-05-10T14:07:41;12;4;2
42510;PMS7003;28141;51.120;17.114;2023-05-10T14:11:23;9;3;2
42510;PMS7003;28141;51.120;17.114;2023-05-10T14:14:37;10;3;2
42510;PMS7003;28141;51.120;17.114;2023-05-10T14:17:51;11;3;1
42510;PMS7003;28141;51.120;17.114;2023-05-10T14:21:05;10;3;2
42510;PMS7003;28141;51.120;17.114;2023-05-10T14:24:48;10;3;2
42510;PMS7003;28141;51.120;17.114;2023-05-10T14:28:03;10;3;2
42510;PMS7003;28141;51.120;17.114;2023-05-10T14:31:16;10;2;1
42510;PMS7003;28141;51.120;17.114;2023-05-10T14:34:33;10;3;1
42510;PMS7003;28141;51.120;17.114;2023-05-10T14:38:16;9;2;2
42510;PMS7003;28141;51.120;17.114;2023-05-10T14:41:30;10;2;1
42510;PMS7003;28141;51.120;17.114;2023-05-10T14:44:44;10;3;1
42510;PMS7003;28141;51.120;17.114;2023-05-10T14:47:58;9;2;1
42510;PMS7003;28141;51.120;17.114;2023-05-10T14:51:41;9;2;1
42510;PMS7003;28141;51.120;17.114;2023-05-10T14:54:55;10;3;2
42510;PMS7003;28141;51.120;17.114;2023-05-10T14:58:11;9;2;1
42510;PMS7003;28141;51.120;17.114;2023-05-10T15:01:25;9;2;1
42510;PMS7003;28141;51.120;17.114;2023-05-10T15:05:08;8;1;1
42510;PMS7003;28141;51.120;17.114;2023-05-10T15:08:23;8;2;1
42510;PMS7003;28141;51.120;17.114;2023-05-10T15:11:37;9;2;2
42510;PMS7003;28141;51.120;17.114;2023-05-10T15:14:51;8;1;1
42510;PMS7003;28141;51.120;17.114;2023-05-10T15:18:34;8;2;1
42510;PMS7003;28141;51.120;17.114;2023-05-10T15:21:48;8;1;1
42510;PMS7003;28141;51.120;17.114;2023-05-10T15:25:03;9;2;1
42510;PMS7003;28141;51.120;17.114;2023-05-10T15:28:17;9;2;2
42510;PMS7003;28141;51.120;17.114;2023-05-10T15:31:59;10;3;2
42510;PMS7003;28141;51.120;17.114;2023-05-10T15:35:16;8;2;1
42510;PMS7003;28141;51.120;17.114;2023-05-10T15:38:31;9;2;1
42510;PMS7003;28141;51.120;17.114;2023-05-10T15:41:46;8;2;1
42510;PMS7003;28141;51.120;17.114;2023-05-10T15:45:28;8;2;1
42510;PMS7003;28141;51.120;17.114;2023-05-10T15:48:42;8;2;1
42510;PMS7003;28141;51.120;17.114;2023-05-10T15:51:56;9;2;1
42510;PMS7003;28141;51.120;17.114;2023-05-10T15:55:10;8;2;1
42510;PMS7003;28141;51.120;17.114;2023-05-10T15:58:54;8;2;1
42510;PMS7003;28141;51.120;17.114;2023-05-10T16:02:08;9;2;1
42510;PMS7003;28141;51.120;17.114;2023-05-10T16:05:25;10;3;2
42510;PMS7003;28141;51.120;17.114;2023-05-10T16:08:45;9;2;1
42510;PMS7003;28141;51.120;17.114;2023-05-10T16:12:29;9;2;1
42510;PMS7003;28141;51.120;17.114;2023-05-10T16:15:43;8;1;1
42510;PMS7003;28141;51.120;17.114;2023-05-10T16:18:58;9;1;0
42510;PMS7003;28141;51.120;17.114;2023-05-10T16:22:15;9;1;1
42510;PMS7003;28141;51.120;17.114;2023-05-10T16:25:58;8;2;1
42510;PMS7003;28141;51.120;17.114;2023-05-10T16:29:12;9;2;2
42510;PMS7003;28141;51.120;17.114;2023-05-10T16:32:26;9;1;1
42510;PMS7003;28141;51.120;17.114;2023-05-10T16:35:40;8;1;1
42510;PMS7003;28141;51.120;17.114;2023-05-10T16:39:22;8;2;1
42510;PMS7003;28141;51.120;17.114;2023-05-10T16:42:36;8;1;1
42510;PMS7003;28141;51.120;17.114;2023-05-10T16:45:50;9;2;2
42510;PMS7003;28141;51.120;17.114;2023-05-10T16:49:05;9;2;1
42510;PMS7003;28141;51.120;17.114;2023-05-10T16:52:47;8;1;1
42510;PMS7003;28141;51.120;17.114;2023-05-10T16:56:01;9;2;1
42510;PMS7003;28141;51.120;17.114;2023-05-10T16:59:16;9;2;2
42510;PMS7003;28141;51.120;17.114;2023-05-10T17:02:30;9;2;1
42510;PMS7003;28141;51.120;17.114;2023-05-10T17:06:12;10;2;1
42510;PMS7003;28141;51.120;17.114;2023-05-10T17:09:26;8;1;1
42510;PMS7003;28141;51.120;17.114;2023-05-10T17:12:41;8;1;1
42510;PMS7003;28141;51.120;17.114;2023-05-10T17:15:55;7;1;1
42510;PMS7003;28141;51.120;17.114;2023-05-10T17:19:39;8;1;1
42510;PMS7003;28141;51.120;17.114;2023-05-10T17:22:57;8;2;1
42510;PMS7003;28141;51.120;17.114;2023-05-10T17:26:11;9;2;2
42510;PMS7003;28141;51.120;17.114;2023-05-10T17:29:25;9;2;1
42510;PMS7003;28141;51.120;17.114;2023-05-10T17:33:09;9;2;1
42510;PMS7003;28141;51.120;17.114;2023-05-10T17:36:23;8;2;1
42510;PMS7003;28141;51.120;17.114;2023-05-10T17:39:37;9;2;1
42510;PMS7003;28141;51.120;17.114;2023-05-10T17:42:51;9;3;1
42510;PMS7003;28141;51.120;17.114;2023-05-10T17:46:33;8;2;2
42510;PMS7003;28141;51.120;17.114;2023-05-10T17:49:48;9;2;2
42510;PMS7003;28141;51.120;17.114;2023-05-10T17:53:02;10;2;1
42510;PMS7003;28141;51.120;17.114;2023-05-10T17:56:16;8;1;1
42510;PMS7003;28141;51.120;17.114;2023-05-10T17:59:56;9;2;2
42510;PMS7003;28141;51.120;17.114;2023-05-10T18:03:10;8;2;2
42510;PMS7003;28141;51.120;17.114;2023-05-10T18:06:23;8;2;1
42510;PMS7003;28141;51.120;17.114;2023-05-10T18:09:38;9;2;1
42510;PMS7003;28141;51.120;17.114;2023-05-10T18:13:18;9;2;1
42510;PMS7003;28141;51.120;17.114;2023-05-10T18:16:33;8;2;1
42510;PMS7003;28141;51.120;17.114;2023-05-10T18:19:46;8;2;1
42510;PMS7003;28141;51.120;17.114;2023-05-10T18:23:00;9;2;2
42510;PMS7003;28141;51.120;17.114;2023-05-10T18:26:42;10;3;1
42510;PMS7003;28141;51.120;17.114;2023-05-10T18:29:56;9;2;2
42510;PMS7003;28141;51.120;17.114;2023-05-10T18:33:10;8;2;1
42510;PMS7003;28141;51.120;17.114;2023-05-10T18:36:24;9;3;1
42510;PMS7003;28141;51.120;17.114;2023-05-10T18:40:06;9;2;1
42510;PMS7003;28141;51.120;17.114;2023-05-10T18:43:26;9;2;2
42510;PMS7003;28141;51.120;17.114;2023-05-10T18:46:40;10;3;2
42510;PMS7003;28141;51.120;17.114;2023-05-10T18:49:55;10;3;2
42510;PMS7003;28141;51.120;17.114;2023-05-10T18:53:39;9;2;2
42510;PMS7003;28141;51.120;17.114;2023-05-10T18:56:53;9;2;2
42510;PMS7003;28141;51.120;17.114;2023-05-10T19:00:10;9;3;2
42510;PMS7003;28141;51.120;17.114;2023-05-10T19:03:25;10;3;2
42510;PMS7003;28141;51.120;17.114;2023-05-10T19:07:07;8;2;1
42510;PMS7003;28141;51.120;17.114;2023-05-10T19:10:21;14;5;3
42510;PMS7003;28141;51.120;17.114;2023-05-10T19:13:38;11;3;1
42510;PMS7003;28141;51.120;17.114;2023-05-10T19:16:52;11;4;2
42510;PMS7003;28141;51.120;17.114;2023-05-10T19:20:32;10;3;2
42510;PMS7003;28141;51.120;17.114;2023-05-10T19:23:47;9;3;2
42510;PMS7003;28141;51.120;17.114;2023-05-10T19:27:01;10;4;2
42510;PMS7003;28141;51.120;17.114;2023-05-10T19:30:15;11;3;3
42510;PMS7003;28141;51.120;17.114;2023-05-10T19:33:54;11;4;3
42510;PMS7003;28141;51.120;17.114;2023-05-10T19:37:08;10;2;1
42510;PMS7003;28141;51.120;17.114;2023-05-10T19:40:23;10;3;1
42510;PMS7003;28141;51.120;17.114;2023-05-10T19:43:36;10;3;2
42510;PMS7003;28141;51.120;17.114;2023-05-10T19:47:17;10;3;2
42510;PMS7003;28141;51.120;17.114;2023-05-10T19:50:31;11;3;2
42510;PMS7003;28141;51.120;17.114;2023-05-10T19:53:45;10;3;2
42510;PMS7003;28141;51.120;17.114;2023-05-10T19:56:59;12;3;2
42510;PMS7003;28141;51.120;17.114;2023-05-10T20:00:44;9;3;2
42510;PMS7003;28141;51.120;17.114;2023-05-10T20:03:58;9;3;2
42510;PMS7003;28141;51.120;17.114;2023-05-10T20:07:12;10;3;2
42510;PMS7003;28141;51.120;17.114;2023-05-10T20:10:26;11;3;2
42510;PMS7003;28141;51.120;17.114;2023-05-10T20:14:07;12;4;2
42510;PMS7003;28141;51.120;17.114;2023-05-10T20:17:21;9;3;2
42510;PMS7003;28141;51.120;17.114;2023-05-10T20:20:35;12;4;2
42510;PMS7003;28141;51.120;17.114;2023-05-10T20:23:49;11;3;2
42510;PMS7003;28141;51.120;17.114;2023-05-10T20:27:29;9;3;2
42510;PMS7003;28141;51.120;17.114;2023-05-10T20:30:43;11;3;2
42510;PMS7003;28141;51.120;17.114;2023-05-10T20:33:58;10;3;2
42510;PMS7003;28141;51.120;17.114;2023-05-10T20:37:12;11;4;2
42510;PMS7003;28141;51.120;17.114;2023-05-10T20:40:52;12;4;2
42510;PMS7003;28141;51.120;17.114;2023-05-10T20:44:06;11;3;2
42510;PMS7003;28141;51.120;17.114;2023-05-10T20:47:20;12;4;2
42510;PMS7003;28141;51.120;17.114;2023-05-10T20:50:37;9;2;2
42510;PMS7003;28141;51.120;17.114;2023-05-10T20:54:17;12;5;3
42510;PMS7003;28141;51.120;17.114;2023-05-10T20:57:32;10;4;2
42510;PMS7003;28141;51.120;17.114;2023-05-10T21:00:45;10;4;2
42510;PMS7003;28141;51.120;17.114;2023-05-10T21:03:59;11;3;2
42510;PMS7003;28141;51.120;17.114;2023-05-10T21:07:39;12;4;3
42510;PMS7003;28141;51.120;17.114;2023-05-10T21:10:53;11;4;3
42510;PMS7003;28141;51.120;17.114;2023-05-10T21:14:08;10;4;2
42510;PMS7003;28141;51.120;17.114;2023-05-10T21:17:22;9;3;2
42510;PMS7003;28141;51.120;17.114;2023-05-10T21:20:36;10;3;2
42510;PMS7003;28141;51.120;17.114;2023-05-10T21:23:50;11;4;2
42510;PMS7003;28141;51.120;17.114;2023-05-10T21:27:30;11;4;3
42510;PMS7003;28141;51.120;17.114;2023-05-10T21:30:44;10;4;2
42510;PMS7003;28141;51.120;17.114;2023-05-10T21:33:58;14;4;3
42510;PMS7003;28141;51.120;17.114;2023-05-10T21:37:14;11;5;3
42510;PMS7003;28141;51.120;17.114;2023-05-10T21:40:55;10;3;2
42510;PMS7003;28141;51.120;17.114;2023-05-10T21:44:09;11;4;2
42510;PMS7003;28141;51.120;17.114;2023-05-10T21:47:23;11;4;2
42510;PMS7003;28141;51.120;17.114;2023-05-10T21:50:37;11;3;2
42510;PMS7003;28141;51.120;17.114;2023-05-10T21:54:19;11;4;2
42510;PMS7003;28141;51.120;17.114;2023-05-10T21:57:33;12;4;3
42510;PMS7003;28141;51.120;17.114;2023-05-10T22:00:47;12;4;3
42510;PMS7003;28141;51.120;17.114;2023-05-10T22:04:01;9;3;2
42510;PMS7003;28141;51.120;17.114;2023-05-10T22:07:43;10;4;2
42510;PMS7003;28141;51.120;17.114;2023-05-10T22:10:58;10;4;2
42510;PMS7003;28141;51.120;17.114;2023-05-10T22:14:12;10;4;2
42510;PMS7003;28141;51.120;17.114;2023-05-10T22:17:26;11;3;2
42510;PMS7003;28141;51.120;17.114;2023-05-10T22:21:07;11;4;3
42510;PMS7003;28141;51.120;17.114;2023-05-10T22:24:22;11;5;3
42510;PMS7003;28141;51.120;17.114;2023-05-10T22:27:35;11;4;3
42510;PMS7003;28141;51.120;17.114;2023-05-10T22:30:50;10;3;3
42510;PMS7003;28141;51.120;17.114;2023-05-10T22:34:30;11;5;3
42510;PMS7003;28141;51.120;17.114;2023-05-10T22:37:45;11;4;3
42510;PMS7003;28141;51.120;17.114;2023-05-10T22:40:59;11;4;3
42510;PMS7003;28141;51.120;17.114;2023-05-10T22:44:13;12;5;3